Time;durP1;ratioP1;P1;durP2;ratioP2;P2;SDS_P1;SDS_P2;PMS_P1;PMS_P2;Temp;Humidity;BMP_temperature;BMP_pressure;BME280_temperature;BME280_humidity;BME280_pressure;Samples;Min_cycle;Max_cycle;Signal;HPM_P1;HPM_P2
2023/03/16 00:01:07;;;;;;;20.63;9.98;;;;;;;8.76;86.00;99865.84;4992205;28;20111;-84
2023/03/16 00:03:33;;;;;;;18.67;9.95;;;;;;;8.78;85.59;99863.00;5022736;28;20030;-84
2023/03/16 00:05:58;;;;;;;17.55;9.82;;;;;;;8.96;85.46;99887.78;5033273;28;20148;-85
2023/03/16 00:08:24;;;;;;;20.67;10.00;;;;;;;8.89;85.15;99876.06;5028783;28;20088;-84
2023/03/16 00:10:52;;;;;;;19.17;9.70;;;;;;;8.75;85.44;99857.97;4991893;28;20049;-86
2023/03/16 00:13:24;;;;;;;17.35;9.90;;;;;;;8.98;85.22;99879.56;5011313;28;20156;-85
2023/03/16 00:15:58;;;;;;;17.23;9.98;;;;;;;8.92;84.96;99862.34;5019465;28;20087;-84
2023/03/16 00:18:27;;;;;;;15.57;9.20;;;;;;;9.08;85.08;99891.81;5010436;28;20045;-85
2023/03/16 00:21:04;;;;;;;15.50;9.13;;;;;;;9.15;84.92;99886.56;5031673;28;20084;-86
2023/03/16 00:23:34;;;;;;;18.23;9.65;;;;;;;9.18;84.54;99875.53;5021035;28;20401;-86
2023/03/16 00:26:03;;;;;;;15.57;9.20;;;;;;;9.23;84.10;99877.69;4988915;28;20038;-86
2023/03/16 00:28:33;;;;;;;17.70;10.00;;;;;;;9.32;83.97;99887.41;5008393;28;20034;-86
2023/03/16 00:31:07;;;;;;;15.73;8.82;;;;;;;9.37;83.62;99887.72;5015644;28;20091;-85
2023/03/16 00:33:34;;;;;;;18.98;9.50;;;;;;;9.41;83.08;99875.63;5010276;28;20428;-84
2023/03/16 00:36:07;;;;;;;16.45;8.95;;;;;;;9.46;83.00;99883.16;5014702;28;20410;-83
2023/03/16 00:38:43;;;;;;;13.18;8.27;;;;;;;9.46;82.80;99881.31;4976784;28;20061;-84
2023/03/16 00:41:14;;;;;;;16.48;9.15;;;;;;;9.33;83.21;99867.59;4989803;28;20503;-86
2023/03/16 00:43:43;;;;;;;16.23;9.38;;;;;;;9.43;83.25;99895.06;5006216;28;20448;-85
2023/03/16 00:46:15;;;;;;;18.17;9.00;;;;;;;9.34;83.25;99874.66;5035952;28;20397;-85
2023/03/16 00:48:42;;;;;;;16.42;8.90;;;;;;;9.46;82.86;99885.84;5003308;28;20090;-85
2023/03/16 00:51:13;;;;;;;17.73;9.10;;;;;;;9.49;82.75;99886.31;5010981;28;20026;-85
2023/03/16 00:53:39;;;;;;;14.70;8.60;;;;;;;9.49;82.72;99878.28;5035307;28;20056;-85
2023/03/16 00:56:05;;;;;;;21.42;9.35;;;;;;;9.54;82.54;99890.34;5007502;28;20049;-84
2023/03/16 00:58:35;;;;;;;18.63;9.32;;;;;;;9.56;82.42;99891.84;5035442;28;20041;-83
2023/03/16 01:01:03;;;;;;;17.10;9.20;;;;;;;9.56;82.61;99893.69;5039888;28;20076;-85
2023/03/16 01:03:29;;;;;;;16.67;9.32;;;;;;;9.49;82.48;99883.63;5013105;28;20045;-86
2023/03/16 01:05:58;;;;;;;;;;;;;;;9.56;82.58;99888.31;4991631;28;20432;-85
2023/03/16 01:08:31;;;;;;;17.58;9.30;;;;;;;9.49;82.12;99874.75;5015799;28;19928;-85
2023/03/16 01:11:10;;;;;;;20.85;9.88;;;;;;;9.48;82.36;99881.97;5029733;28;20039;-85
2023/03/16 01:13:38;;;;;;;20.33;10.18;;;;;;;9.30;82.63;99873.31;5028565;28;20057;-85
2023/03/16 01:16:06;;;;;;;18.85;10.35;;;;;;;9.42;82.64;99892.56;5041957;28;20212;-85
2023/03/16 01:18:34;;;;;;;20.08;11.07;;;;;;;9.45;81.98;99876.94;5029288;28;20473;-85
2023/03/16 01:21:02;;;;;;;17.88;10.30;;;;;;;9.48;81.69;99876.63;5017668;28;20142;-86
2023/03/16 01:23:31;;;;;;;17.60;10.20;;;;;;;9.51;81.38;99876.25;5006176;28;20049;-84
2023/03/16 01:25:58;;;;;;;18.15;10.43;;;;;;;9.44;81.49;99877.97;5035681;28;20068;-85
2023/03/16 01:28:27;;;;;;;19.33;10.23;;;;;;;9.34;81.79;99868.41;4997056;28;20033;-86
2023/03/16 01:30:56;;;;;;;19.85;11.43;;;;;;;9.39;81.58;99871.41;5036468;28;20083;-84
2023/03/16 01:33:22;;;;;;;20.08;11.20;;;;;;;9.58;81.28;99902.41;4996137;28;20217;-84
2023/03/16 01:35:54;;;;;;;20.30;11.00;;;;;;;9.52;81.08;99899.38;5033805;28;20112;-86
2023/03/16 01:38:23;;;;;;;21.33;11.15;;;;;;;9.36;81.37;99898.59;5039394;28;20034;-85
2023/03/16 01:40:50;;;;;;;21.90;10.55;;;;;;;9.42;81.44;99898.75;4986998;28;20040;-84
2023/03/16 01:43:17;;;;;;;21.20;11.20;;;;;;;9.54;81.14;99914.50;5038540;28;20232;-85
2023/03/16 01:46:05;;;;;;;20.85;11.60;;;;;;;9.56;80.80;99915.16;5016415;28;20607;-85
2023/03/16 01:49:09;;;;;;;19.17;11.75;;;;;;;9.56;80.69;99909.78;5045801;28;20029;-83
2023/03/16 01:51:53;;;;;;;20.77;11.73;;;;;;;9.54;80.99;99917.19;5039306;28;20075;-84
2023/03/16 01:54:43;;;;;;;21.50;12.35;;;;;;;9.27;81.20;99898.63;5017924;28;20048;-84
2023/03/16 01:57:14;;;;;;;25.42;12.70;;;;;;;9.40;80.90;99911.50;5035443;28;20028;-84
2023/03/16 01:59:52;;;;;;;20.02;12.02;;;;;;;9.50;80.82;99928.25;4997848;28;20124;-85
2023/03/16 02:02:22;;;;;;;22.92;12.45;;;;;;;9.55;80.75;99925.03;5036968;28;20033;-84
2023/03/16 02:04:50;;;;;;;21.73;12.20;;;;;;;9.41;80.88;99918.56;5016589;28;20052;-86
2023/03/16 02:07:18;;;;;;;21.83;11.82;;;;;;;9.46;80.79;99916.19;5014849;28;20093;-84
2023/03/16 02:09:46;;;;;;;19.58;12.25;;;;;;;9.45;80.68;99919.88;4994727;28;20191;-84
2023/03/16 02:12:16;;;;;;;17.55;11.57;;;;;;;9.57;80.18;99932.91;5021566;28;20472;-84
2023/03/16 02:14:47;;;;;;;17.02;11.10;;;;;;;9.27;80.63;99921.91;5014413;28;20470;-83
2023/03/16 02:17:16;;;;;;;16.77;11.77;;;;;;;9.25;80.83;99932.00;5018744;28;20035;-84
2023/03/16 02:19:54;;;;;;;22.38;11.45;;;;;;;9.18;81.69;99944.41;5013824;28;20112;-83
2023/03/16 02:22:23;;;;;;;24.48;11.80;;;;;;;9.24;81.45;99935.69;5035896;28;20033;-84
2023/03/16 02:24:54;;;;;;;22.08;11.00;;;;;;;9.03;81.67;99907.53;5019352;28;20041;-85
2023/03/16 02:27:36;;;;;;;19.00;11.73;;;;;;;9.03;82.48;99936.19;5018991;28;20044;-85
2023/03/16 02:30:17;;;;;;;20.25;12.10;;;;;;;9.11;82.24;99938.88;5014807;28;20041;-83
2023/03/16 02:32:45;;;;;;;22.20;11.57;;;;;;;9.16;82.04;99941.06;5039465;28;20591;-84
2023/03/16 02:35:12;;;;;;;18.45;11.75;;;;;;;9.17;81.74;99938.19;4994926;28;20124;-84
2023/03/16 02:37:38;;;;;;;19.25;11.80;;;;;;;9.21;81.91;99942.22;5030113;28;20029;-85
2023/03/16 02:40:42;;;;;;;20.42;11.80;;;;;;;9.16;81.87;99938.38;5029920;28;20477;-85
2023/03/16 02:43:15;;;;;;;18.85;11.35;;;;;;;9.25;81.30;99946.25;4949271;29;20438;-85
2023/03/16 02:45:46;;;;;;;19.25;12.18;;;;;;;9.38;81.03;99951.06;5006143;28;20110;-83
2023/03/16 02:48:16;;;;;;;21.58;11.95;;;;;;;9.48;80.58;99946.38;5027310;28;20060;-84
2023/03/16 02:50:49;;;;;;;18.92;11.23;;;;;;;9.43;80.25;99935.28;4990447;28;20041;-85
2023/03/16 02:53:15;;;;;;;18.30;11.57;;;;;;;9.49;80.04;99939.16;4996066;28;20113;-84
2023/03/16 02:55:40;;;;;;;17.55;11.18;;;;;;;9.59;80.05;99947.00;5010854;28;20121;-83
2023/03/16 02:58:07;;;;;;;16.63;10.80;;;;;;;9.48;79.79;99932.97;5040508;28;20503;-85
2023/03/16 03:00:32;;;;;;;16.75;11.30;;;;;;;9.55;79.71;99951.03;5017685;28;20037;-84
2023/03/16 03:02:58;;;;;;;16.92;10.55;;;;;;;9.59;79.46;99947.00;5014480;28;20037;-85
2023/03/16 03:05:25;;;;;;;16.33;10.68;;;;;;;9.58;79.39;99953.41;5009051;28;20048;-86
2023/03/16 03:07:52;;;;;;;15.68;10.07;;;;;;;9.59;79.28;99953.22;4995413;28;20044;-85
2023/03/16 03:10:18;;;;;;;16.30;10.50;;;;;;;9.50;79.31;99964.97;5032244;28;20037;-85
2023/03/16 03:12:48;;;;;;;14.00;9.90;;;;;;;9.51;78.74;99951.38;5010184;28;20083;-86
2023/03/16 03:15:15;;;;;;;12.77;8.88;;;;;;;9.43;79.06;99966.66;5033821;28;20068;-85
2023/03/16 03:17:41;;;;;;;12.93;9.20;;;;;;;9.29;79.35;99963.69;5029358;28;20046;-85
2023/03/16 03:20:15;;;;;;;11.98;8.48;;;;;;;9.29;79.42;99966.38;4989574;28;20164;-84
2023/03/16 03:22:41;;;;;;;12.30;8.35;;;;;;;9.19;79.75;99963.00;5007352;28;20048;-84
2023/03/16 03:25:07;;;;;;;;;;;;;;;9.35;79.86;99978.25;5005821;28;20149;-85
2023/03/16 03:27:34;;;;;;;13.40;8.45;;;;;;;9.20;80.29;99974.56;5011575;28;20363;-85
2023/03/16 03:30:00;;;;;;;21.15;9.90;;;;;;;9.32;79.92;99989.31;5031322;28;20135;-84
2023/03/16 03:32:27;;;;;;;15.50;8.98;;;;;;;9.36;79.77;99985.28;5029329;28;20072;-85
2023/03/16 03:34:52;;;;;;;14.25;9.20;;;;;;;9.36;79.77;99985.28;5014433;28;20107;-85
2023/03/16 03:37:18;;;;;;;13.63;8.95;;;;;;;9.47;79.39;99992.16;5010840;28;20025;-84
2023/03/16 03:39:45;;;;;;;16.73;9.50;;;;;;;9.30;79.42;99969.88;5009291;28;20187;-84
2023/03/16 03:42:12;;;;;;;16.48;9.77;;;;;;;9.42;79.31;99994.50;5009115;28;20034;-84
2023/03/16 03:44:39;;;;;;;16.38;8.93;;;;;;;9.42;79.38;99984.59;5008751;28;20036;-85
2023/03/16 03:47:04;;;;;;;16.60;10.30;;;;;;;9.52;79.39;100000.53;5009927;28;20473;-85
2023/03/16 03:49:30;;;;;;;15.05;10.10;;;;;;;9.56;79.12;99995.66;5010193;28;20029;-84
2023/03/16 03:51:57;;;;;;;14.35;8.85;;;;;;;9.63;79.28;100012.75;5014924;28;20461;-86
2023/03/16 03:54:26;;;;;;;15.90;9.23;;;;;;;9.63;78.78;100004.72;5009267;28;20033;-84
2023/03/16 03:56:54;;;;;;;17.30;9.77;;;;;;;9.60;78.84;99994.28;5004592;28;20045;-84
2023/03/16 03:59:21;;;;;;;14.65;9.90;;;;;;;9.71;78.97;100020.78;5031219;28;20101;-84
2023/03/16 04:01:47;;;;;;;16.52;9.50;;;;;;;9.73;78.96;100018.78;5044199;28;20052;-83
2023/03/16 04:04:13;;;;;;;14.85;9.77;;;;;;;9.68;79.19;100027.34;5042623;28;20507;-85
2023/03/16 04:06:40;;;;;;;16.02;9.85;;;;;;;9.72;79.46;100027.84;5018428;28;20025;-84
2023/03/16 04:09:06;;;;;;;17.73;10.50;;;;;;;9.67;79.69;100024.84;5029790;28;20190;-84
2023/03/16 04:11:32;;;;;;;14.43;9.90;;;;;;;9.60;80.06;100013.09;5010700;28;20032;-85
2023/03/16 04:13:57;;;;;;;16.92;11.07;;;;;;;9.48;80.23;99996.50;5016075;28;20117;-85
2023/03/16 04:16:25;;;;;;;18.88;11.90;;;;;;;9.51;80.95;100036.44;5000079;28;20037;-86
2023/03/16 04:18:53;;;;;;;20.08;11.93;;;;;;;9.42;81.46;100045.50;5005884;28;20068;-84
2023/03/16 04:21:22;;;;;;;18.52;11.77;;;;;;;9.40;81.81;100039.44;5006709;28;20073;-84
2023/03/16 04:23:48;;;;;;;20.13;11.68;;;;;;;9.32;82.19;100042.97;5032517;28;20103;-83
2023/03/16 04:26:15;;;;;;;22.60;12.50;;;;;;;9.14;83.05;100036.94;5005699;28;20033;-85
2023/03/16 04:28:42;;;;;;;20.95;12.45;;;;;;;9.04;83.54;100029.88;5018587;28;20135;-84
2023/03/16 04:31:08;;;;;;;21.50;11.73;;;;;;;9.17;83.35;100044.63;5014249;28;20029;-86
2023/03/16 04:33:36;;;;;;;22.38;11.73;;;;;;;9.12;83.82;100041.63;5013835;28;20087;-84
2023/03/16 04:36:02;;;;;;;20.20;11.82;;;;;;;9.26;83.87;100043.63;5031218;28;20045;-84
2023/03/16 04:38:32;;;;;;;19.98;12.13;;;;;;;9.36;84.18;100049.66;5011152;28;20124;-86
2023/03/16 04:41:03;;;;;;;23.48;12.65;;;;;;;9.38;84.39;100053.03;4999256;28;20041;-85
2023/03/16 04:43:33;;;;;;;23.70;12.73;;;;;;;9.47;84.32;100061.91;4995892;28;20116;-83
2023/03/16 04:46:21;;;;;;;24.92;12.90;;;;;;;9.40;84.09;100067.09;5018329;28;20533;-82
2023/03/16 04:48:48;;;;;;;23.60;12.57;;;;;;;9.22;84.61;100042.28;5019276;28;20493;-81
2023/03/16 04:51:14;;;;;;;28.00;13.23;;;;;;;9.29;84.56;100045.97;5037820;28;20049;-84
2023/03/16 04:53:39;;;;;;;25.10;13.35;;;;;;;9.44;84.68;100071.13;5009836;28;20493;-83
2023/03/16 04:56:06;;;;;;;26.15;13.18;;;;;;;9.32;84.94;100069.81;5035418;28;20040;-82
2023/03/16 04:58:32;;;;;;;23.40;12.52;;;;;;;9.25;85.14;100058.06;5015538;28;20112;-83
2023/03/16 05:00:58;;;;;;;21.95;11.40;;;;;;;9.22;84.88;100074.47;4996855;28;20109;-84
2023/03/16 05:03:23;;;;;;;21.60;11.93;;;;;;;9.04;85.31;100070.13;5009931;28;20084;-84
2023/03/16 05:05:50;;;;;;;22.08;11.98;;;;;;;8.89;85.53;100061.03;4995147;28;20042;-83
2023/03/16 05:08:16;;;;;;;23.77;12.13;;;;;;;8.96;86.12;100086.16;5030497;28;20099;-84
2023/03/16 05:10:43;;;;;;;23.95;12.45;;;;;;;8.92;85.89;100063.41;5031578;28;20076;-83
2023/03/16 05:13:09;;;;;;;23.85;11.68;;;;;;;9.04;86.11;100091.56;5032479;28;20424;-86
2023/03/16 05:15:37;;;;;;;28.58;13.75;;;;;;;9.02;86.08;100079.31;5031747;28;20037;-86
2023/03/16 05:18:02;;;;;;;22.35;12.50;;;;;;;9.14;86.37;100098.63;5031243;28;20590;-87
2023/03/16 05:20:30;;;;;;;22.02;12.35;;;;;;;9.03;85.94;100087.19;5033301;28;20153;-89
2023/03/16 05:22:57;;;;;;;22.80;12.73;;;;;;;8.98;86.39;100089.53;5007340;28;20089;-88
2023/03/16 05:25:22;;;;;;;23.67;13.07;;;;;;;8.98;87.24;100102.94;5007304;28;20033;-84
2023/03/16 05:27:49;;;;;;;22.50;12.52;;;;;;;9.09;87.56;100104.47;5019238;28;20037;-84
2023/03/16 05:30:16;;;;;;;25.25;12.40;;;;;;;9.09;87.56;100101.78;5015480;28;20095;-83
2023/03/16 05:32:42;;;;;;;23.42;12.55;;;;;;;9.14;87.45;100103.97;5008649;28;20523;-83
2023/03/16 05:35:09;;;;;;;24.40;12.65;;;;;;;9.20;87.47;100097.94;5033844;28;20054;-83
2023/03/16 05:37:36;;;;;;;24.88;12.93;;;;;;;9.11;87.33;100094.44;5031733;28;20535;-83
2023/03/16 05:40:13;;;;;;;24.55;13.70;;;;;;;9.24;87.55;100107.34;5035844;28;20060;-84
2023/03/16 05:42:38;;;;;;;26.00;14.40;;;;;;;9.19;86.82;100098.97;5010562;28;20108;-84
2023/03/16 05:45:05;;;;;;;27.15;14.38;;;;;;;9.25;86.99;100109.03;4997378;28;20044;-83
2023/03/16 05:47:35;;;;;;;;;;;;;;;9.23;86.75;100111.03;5031024;28;20033;-83
2023/03/16 05:50:00;;;;;;;29.90;15.02;;;;;;;9.25;87.08;100117.06;5030081;28;19944;-83
2023/03/16 05:52:26;;;;;;;29.95;15.98;;;;;;;8.95;87.18;100092.53;5029431;28;20105;-84
2023/03/16 05:54:52;;;;;;;32.05;16.95;;;;;;;9.06;87.52;100119.06;5016221;28;20060;-83
2023/03/16 05:57:20;;;;;;;36.35;17.88;;;;;;;8.94;88.44;100114.97;5018575;28;20037;-84
2023/03/16 05:59:47;;;;;;;32.13;17.40;;;;;;;8.96;87.83;100128.22;5017233;28;20119;-82
2023/03/16 06:02:13;;;;;;;36.50;18.27;;;;;;;8.88;88.26;100123.69;5012499;28;20132;-82
2023/03/16 06:04:39;;;;;;;31.83;17.80;;;;;;;8.90;87.84;100128.88;5014255;28;20029;-84
2023/03/16 06:07:05;;;;;;;31.33;17.98;;;;;;;9.02;87.97;100131.09;5024237;28;20421;-83
2023/03/16 06:09:30;;;;;;;;;;;;;;;8.85;88.42;100132.91;5012552;28;20124;-82
2023/03/16 06:11:58;;;;;;;34.40;17.83;;;;;;;8.90;89.23;100131.56;5029262;28;20063;-82
2023/03/16 06:14:25;;;;;;;31.88;17.42;;;;;;;8.84;88.81;100119.66;5032595;28;20161;-82
2023/03/16 06:16:50;;;;;;;33.47;18.40;;;;;;;9.07;89.53;100141.34;5020625;28;20037;-80
2023/03/16 06:19:18;;;;;;;31.80;17.98;;;;;;;9.07;89.04;100136.81;5028642;28;20418;-81
2023/03/16 06:21:45;;;;;;;32.00;18.50;;;;;;;9.19;89.37;100139.19;5026752;28;20099;-85
2023/03/16 06:24:12;;;;;;;33.47;18.33;;;;;;;9.16;88.76;100128.81;4995351;28;20045;-85
2023/03/16 06:26:38;;;;;;;36.47;18.88;;;;;;;9.18;88.48;100150.94;5002561;28;20040;-85
2023/03/16 06:29:06;;;;;;;35.60;19.00;;;;;;;9.01;88.76;100141.97;5011436;28;20025;-87
2023/03/16 06:31:35;;;;;;;33.15;18.58;;;;;;;9.01;88.99;100147.34;5015326;28;20033;-87
2023/03/16 06:34:09;;;;;;;38.15;22.05;;;;;;;8.94;89.04;100147.16;5028350;28;20026;-87
2023/03/16 06:36:38;;;;;;;41.65;21.60;;;;;;;8.99;88.83;100147.53;5011672;28;20033;-84
2023/03/16 06:39:08;;;;;;;36.58;21.17;;;;;;;9.07;89.10;100162.78;5028373;28;20526;-87
2023/03/16 06:41:36;;;;;;;35.30;20.20;;;;;;;8.99;89.10;100155.56;5012818;28;20025;-90
2023/03/16 06:44:02;;;;;;;35.08;20.05;;;;;;;8.94;89.33;100155.19;5029013;28;20045;-86
2023/03/16 06:46:29;;;;;;;35.40;20.70;;;;;;;8.85;89.79;100156.19;5006532;28;20041;-82
2023/03/16 06:48:56;;;;;;;37.63;20.52;;;;;;;8.74;89.98;100143.09;5010284;28;20508;-88
2023/03/16 06:51:22;;;;;;;37.65;20.80;;;;;;;9.06;90.04;100183.41;5012218;28;20500;-86
2023/03/16 06:53:48;;;;;;;34.65;20.30;;;;;;;8.96;89.98;100187.22;5006893;28;20068;-88
2023/03/16 06:56:15;;;;;;;37.78;20.48;;;;;;;8.96;90.34;100177.31;5010033;28;20438;-87
2023/03/16 06:58:46;;;;;;;36.83;21.73;;;;;;;8.86;89.80;100172.09;5029458;28;20041;-86
2023/03/16 07:01:12;;;;;;;31.67;19.48;;;;;;;9.20;89.02;100207.91;5022968;28;20041;-86
2023/03/16 07:03:43;;;;;;;33.53;19.90;;;;;;;9.19;88.99;100201.72;4988744;28;20029;-85
2023/03/16 07:06:11;;;;;;;35.53;21.25;;;;;;;8.75;89.37;100158.97;5035200;28;20057;-86
2023/03/16 07:08:36;;;;;;;35.42;20.85;;;;;;;9.06;89.41;100202.19;5020556;28;20077;-87
2023/03/16 07:11:03;;;;;;;32.42;19.48;;;;;;;8.87;89.05;100183.66;5006894;28;20057;-84
2023/03/16 07:13:39;;;;;;;30.67;18.60;;;;;;;9.14;88.13;100221.97;5011387;28;20099;-86
2023/03/16 07:16:05;;;;;;;36.22;21.10;;;;;;;8.78;89.64;100184.63;5034897;28;20087;-87
2023/03/16 07:18:36;;;;;;;40.53;21.20;;;;;;;8.63;90.19;100176.34;5012553;28;20037;-86
2023/03/16 07:21:05;;;;;;;39.42;21.23;;;;;;;8.83;90.70;100220.69;5013770;28;20041;-87
2023/03/16 07:23:35;;;;;;;47.72;23.08;;;;;;;8.43;90.55;100207.91;5028894;28;20029;-83
2023/03/16 07:26:02;;;;;;;42.65;22.38;;;;;;;8.21;93.03;100219.94;5017497;28;20044;-85
2023/03/16 07:28:28;;;;;;;48.80;24.38;;;;;;;8.29;92.98;100216.47;5028188;28;20067;-84
2023/03/16 07:30:55;;;;;;;47.95;24.27;;;;;;;8.47;93.04;100219.13;4989405;28;20108;-82
2023/03/16 07:33:22;;;;;;;42.67;21.10;;;;;;;8.46;93.52;100223.66;5016947;28;20042;-83
2023/03/16 07:35:49;;;;;;;22.08;12.15;;;;;;;8.71;92.80;100247.91;5032132;28;20053;-85
2023/03/16 07:38:16;;;;;;;9.40;4.40;;;;;;;8.69;91.00;100248.09;4994674;28;20502;-84
2023/03/16 07:40:44;;;;;;;4.68;2.63;;;;;;;8.61;90.16;100240.81;5023470;28;20049;-85
2023/03/16 07:43:11;;;;;;;3.65;2.05;;;;;;;8.74;89.45;100242.25;5017488;28;20036;-86
2023/03/16 07:45:37;;;;;;;5.45;2.20;;;;;;;8.78;89.41;100251.63;5015769;28;20101;-84
2023/03/16 07:48:03;;;;;;;2.83;1.70;;;;;;;8.81;88.65;100252.16;5037574;28;20044;-84
2023/03/16 07:50:30;;;;;;;3.85;2.40;;;;;;;8.72;89.59;100246.94;4998918;28;20037;-84
2023/03/16 07:52:56;;;;;;;3.58;2.30;;;;;;;8.74;89.97;100243.09;5019944;28;20513;-84
2023/03/16 07:55:24;;;;;;;3.30;1.90;;;;;;;8.71;88.95;100259.50;5000557;28;20033;-85
2023/03/16 07:57:50;;;;;;;2.92;1.75;;;;;;;8.54;88.19;100253.16;4993481;28;20505;-86
2023/03/16 08:00:16;;;;;;;3.60;2.22;;;;;;;8.41;88.77;100225.97;4999753;28;20041;-87
2023/03/16 08:02:42;;;;;;;5.03;2.50;;;;;;;8.60;88.73;100267.78;5038149;28;20041;-85
2023/03/16 08:05:11;;;;;;;;;;;;;;;8.57;88.66;100268.94;5010368;28;20104;-84
2023/03/16 08:07:37;;;;;;;6.95;2.90;;;;;;;8.34;89.18;100251.69;5038447;28;19921;-84
2023/03/16 08:10:05;;;;;;;4.30;2.92;;;;;;;8.45;90.32;100257.66;4996977;28;20096;-86
2023/03/16 08:12:32;;;;;;;4.72;2.85;;;;;;;8.56;89.07;100287.84;5020782;28;20144;-85
2023/03/16 08:14:59;;;;;;;4.53;2.88;;;;;;;8.46;88.45;100258.50;5031238;28;20073;-85
2023/03/16 08:17:24;;;;;;;4.75;2.85;;;;;;;8.35;88.59;100264.91;4988280;28;20048;-84
2023/03/16 08:19:50;;;;;;;6.03;3.30;;;;;;;8.22;89.13;100265.31;5020153;28;20458;-85
2023/03/16 08:22:16;;;;;;;7.50;3.58;;;;;;;8.19;89.26;100265.63;5033234;28;20516;-84
2023/03/16 08:24:41;;;;;;;4.63;3.03;;;;;;;8.17;89.31;100269.44;5029528;28;20064;-84
2023/03/16 08:27:07;;;;;;;5.72;4.00;;;;;;;8.01;89.36;100267.50;5029351;28;20045;-85
2023/03/16 08:29:33;;;;;;;4.72;3.55;;;;;;;8.12;89.44;100294.00;5016875;28;20469;-83
2023/03/16 08:32:00;;;;;;;5.55;3.90;;;;;;;8.00;90.17;100276.50;5002928;28;20045;-86
2023/03/16 08:34:26;;;;;;;6.75;4.40;;;;;;;8.01;89.90;100294.25;4997153;28;20036;-85
2023/03/16 08:36:52;;;;;;;5.13;3.60;;;;;;;8.03;90.09;100292.28;4976348;28;20050;-84
2023/03/16 08:39:18;;;;;;;;;;;;;;;8.08;90.20;100299.81;5016114;28;20038;-82
2023/03/16 08:41:45;;;;;;;5.30;3.20;;;;;;;8.05;89.66;100300.97;5014003;28;19932;-84
2023/03/16 08:44:12;;;;;;;6.47;4.00;;;;;;;8.12;90.25;100301.19;5014065;28;20026;-85
2023/03/16 08:46:38;;;;;;;7.78;4.30;;;;;;;8.07;89.57;100288.28;5012034;28;20053;-84
2023/03/16 08:49:05;;;;;;;7.13;4.05;;;;;;;8.03;89.54;100279.72;4977635;28;20086;-84
2023/03/16 08:51:31;;;;;;;6.70;3.97;;;;;;;8.25;88.78;100307.84;4979012;28;20189;-84
2023/03/16 08:53:58;;;;;;;6.28;3.83;;;;;;;8.28;88.64;100292.47;5011623;28;20369;-87
2023/03/16 08:56:24;;;;;;;5.32;3.65;;;;;;;8.42;88.32;100324.91;5002657;28;20052;-84
2023/03/16 08:58:50;;;;;;;6.18;4.72;;;;;;;8.53;87.98;100305.09;5028167;28;20037;-85
2023/03/16 09:01:19;;;;;;;6.35;4.57;;;;;;;8.62;87.42;100306.00;5018208;28;20045;-86
2023/03/16 09:03:45;;;;;;;6.75;4.90;;;;;;;8.37;87.61;100272.78;5010848;28;20033;-85
2023/03/16 09:06:13;;;;;;;;;;;;;;;8.56;86.48;100315.47;5017087;28;20029;-84
2023/03/16 09:08:39;;;;;;;8.45;5.20;;;;;;;8.43;86.82;100296.31;5007159;28;19968;-85
2023/03/16 09:11:16;;;;;;;7.05;4.60;;;;;;;8.50;86.49;100326.84;5007933;28;20135;-85
2023/03/16 09:13:53;;;;;;;8.05;5.20;;;;;;;8.48;86.59;100318.13;5011024;28;20057;-86
2023/03/16 09:16:24;;;;;;;8.88;5.13;;;;;;;8.23;86.63;100290.25;5004627;28;20095;-86
2023/03/16 09:18:52;;;;;;;8.52;5.35;;;;;;;8.55;87.06;100324.53;5026154;28;20094;-85
2023/03/16 09:21:18;;;;;;;10.43;5.57;;;;;;;8.60;85.98;100319.53;5041602;28;20044;-86
2023/03/16 09:23:44;;;;;;;10.57;5.85;;;;;;;8.96;85.98;100327.47;5015961;28;20030;-84
2023/03/16 09:26:11;;;;;;;6.47;4.18;;;;;;;8.88;84.48;100327.44;5012515;28;20045;-85
2023/03/16 09:28:43;;;;;;;7.53;5.75;;;;;;;8.88;83.98;100336.31;4998112;28;20253;-85
2023/03/16 09:31:14;;;;;;;8.95;5.57;;;;;;;8.76;84.31;100326.84;5017472;28;20457;-87
2023/03/16 09:33:45;;;;;;;7.50;4.85;;;;;;;8.81;83.53;100351.34;5033284;28;20034;-84
2023/03/16 09:36:12;;;;;;;10.00;5.40;;;;;;;8.74;84.02;100336.06;5005670;28;20052;-86
2023/03/16 09:38:42;;;;;;;9.15;6.35;;;;;;;8.64;84.56;100339.69;5012970;28;20425;-86
2023/03/16 09:41:24;;;;;;;10.32;6.25;;;;;;;8.61;84.92;100350.69;5000807;28;20029;-85
2023/03/16 09:44:01;;;;;;;7.50;4.70;;;;;;;8.49;85.09;100368.00;4994064;28;20065;-86
2023/03/16 09:46:28;;;;;;;12.57;5.70;;;;;;;8.42;85.27;100369.63;5020099;28;20071;-86
2023/03/16 09:49:02;;;;;;;9.02;6.22;;;;;;;8.30;86.60;100350.25;5020025;28;20037;-84
2023/03/16 09:51:47;;;;;;;10.15;6.43;;;;;;;8.52;86.19;100370.41;5035317;28;20052;-85
2023/03/16 09:54:46;;;;;;;11.68;6.25;;;;;;;8.38;85.44;100362.84;5017116;28;20029;-85
2023/03/16 09:57:35;;;;;;;8.77;6.15;;;;;;;8.48;84.99;100377.06;5032812;28;20034;-85
2023/03/16 10:00:13;;;;;;;8.80;5.82;;;;;;;8.51;84.96;100376.75;5011143;28;20036;-85
2023/03/16 10:03:16;;;;;;;8.60;6.18;;;;;;;8.69;85.27;100394.66;5016717;28;20041;-86
2023/03/16 10:05:45;;;;;;;10.82;6.50;;;;;;;8.68;84.25;100382.25;5033156;28;20041;-86
2023/03/16 10:08:59;;;;;;;9.88;6.47;;;;;;;8.91;84.24;100399.50;5012354;28;20513;-85
2023/03/16 10:11:32;;;;;;;8.20;5.97;;;;;;;8.89;84.16;100398.81;5016239;28;20136;-85
2023/03/16 10:35:21;;;;;;;14.30;7.15;;;;;;;8.80;84.15;100397.06;5002853;28;20093;-86
2023/03/16 10:38:32;;;;;;;7.93;5.28;;;;;;;8.77;82.48;100397.38;5001285;28;20054;-87
2023/03/16 10:45:19;;;;;;;9.20;6.18;;;;;;;8.85;82.36;100402.81;4993724;28;20150;-88
2023/03/16 10:48:04;;;;;;;9.27;6.38;;;;;;;8.64;83.10;100373.69;4997444;28;20045;-87
2023/03/16 10:51:53;;;;;;;10.07;6.10;;;;;;;8.70;82.83;100370.38;4951373;28;20081;-91
2023/03/16 10:54:57;;;;;;;8.48;5.93;;;;;;;8.75;82.45;100404.75;4849177;29;20041;-89
2023/03/16 11:01:59;;;;;;;9.68;6.47;;;;;;;8.76;82.36;100411.81;4883357;29;20088;-88
2023/03/16 11:21:31;;;;;;;;;;;;;;;;;;;;;
2023/03/16 11:39:27;;;;;;;9.60;5.97;;;;;;;9.58;78.33;100417.69;4997258;28;20050;-90
2023/03/16 11:42:14;;;;;;;8.15;6.15;;;;;;;9.64;77.96;100412.50;4987653;28;20073;-89
2023/03/16 11:45:10;;;;;;;8.10;6.10;;;;;;;9.65;77.81;100414.19;4970785;28;20050;-90
2023/03/16 11:48:24;;;;;;;9.40;6.45;;;;;;;9.68;77.71;100413.03;4950727;28;20100;-90
2023/03/16 11:51:18;;;;;;;8.70;6.40;;;;;;;9.54;78.25;100389.50;4911513;29;20051;-91
2023/03/16 11:54:17;;;;;;;11.93;7.15;;;;;;;9.59;79.45;100416.69;4903888;29;20036;-91
2023/03/16 11:56:53;;;;;;;10.45;7.45;;;;;;;9.32;80.46;100386.38;4982770;28;20039;-91
2023/03/16 12:00:08;;;;;;;13.38;7.88;;;;;;;9.50;80.12;100421.16;4960515;28;20039;-86
2023/03/16 12:03:11;;;;;;;11.50;8.10;;;;;;;9.25;80.67;100429.09;4972437;28;20034;-84
2023/03/16 12:05:46;;;;;;;12.55;8.18;;;;;;;9.42;81.53;100429.19;4977751;28;20399;-85
2023/03/16 12:08:35;;;;;;;12.80;7.25;;;;;;;9.05;80.95;100414.19;4962055;28;20053;-85
2023/03/16 12:11:12;;;;;;;9.15;6.53;;;;;;;9.05;79.70;100422.22;4960910;28;20039;-86
2023/03/16 12:13:55;;;;;;;10.23;7.03;;;;;;;9.14;79.56;100413.25;4941490;28;20089;-87
2023/03/16 12:16:34;;;;;;;12.70;8.20;;;;;;;9.15;81.36;100443.56;4964779;28;20181;-84
2023/03/16 12:19:05;;;;;;;10.13;7.28;;;;;;;9.14;81.26;100444.59;4960959;28;20042;-85
2023/03/16 12:21:41;;;;;;;11.50;7.35;;;;;;;9.13;80.37;100440.22;4965543;28;20142;-88
2023/03/16 12:24:16;;;;;;;11.98;7.25;;;;;;;8.78;79.42;100405.28;4949345;28;20510;-88
2023/03/16 12:26:44;;;;;;;11.32;7.45;;;;;;;9.09;80.94;100450.44;4972176;28;20058;-85
2023/03/16 12:29:45;;;;;;;14.82;9.35;;;;;;;8.94;83.42;100447.44;4976108;28;20045;-85
2023/03/16 12:32:33;;;;;;;13.35;9.27;;;;;;;8.97;83.75;100454.38;4912232;28;20057;-83
2023/03/16 12:35:01;;;;;;;17.10;10.20;;;;;;;8.95;84.06;100443.78;4970661;28;20042;-85
2023/03/16 12:37:37;;;;;;;17.33;11.32;;;;;;;9.15;83.94;100465.03;4968873;28;20800;-83
2023/03/16 12:40:47;;;;;;;11.55;8.05;;;;;;;9.02;80.53;100466.28;4947862;28;20035;-84
2023/03/16 12:43:22;;;;;;;10.07;7.00;;;;;;;8.70;79.88;100434.69;4961380;28;20054;-84
2023/03/16 12:46:06;;;;;;;12.13;7.43;;;;;;;8.84;80.27;100468.16;4969737;28;20042;-83
2023/03/16 12:48:59;;;;;;;12.10;7.82;;;;;;;8.74;80.45;100465.56;4959075;28;20105;-83
2023/03/16 12:51:40;;;;;;;12.85;8.60;;;;;;;8.79;80.63;100459.72;4972222;28;20152;-83